METAR Data
IDs: Format: Raw Decoded Include TAF

Data at: 1610 UTC 18 Feb 2019

METAR for:KIIB (Independence Muni, IA, US)
Text:KIIB 181555Z AUTO 32005KT 10SM CLR M09/M12 A3038 RMK AO2 T10911124
Temperature: -9.1°C ( 16°F)
Dewpoint:-12.4°C ( 10°F) [RH = 77%]
Pressure (altimeter):30.38 inches Hg (1028.9 mb)
Winds:from the NW (320 degrees) at 6 MPH (5 knots; 2.6 m/s)
Visibility:10 or more sm (16+ km)
Ceiling:at least 12,000 feet AGL
Clouds:sky clear below 12,000 feet AGL
QC Flag:automated observation with no human augmentation